createdAt,value
2018-05-19T00:00:18.154Z,39.35
2018-05-19T00:02:47.659Z,40.30
2018-05-19T00:05:17.474Z,38.88
2018-05-19T00:07:47.264Z,42.17
2018-05-19T00:10:17.063Z,40.88
2018-05-19T00:12:46.857Z,44.03
2018-05-19T00:15:17.443Z,43.00
2018-05-19T00:17:47.291Z,38.65
2018-05-19T00:20:17.124Z,43.47
2018-05-19T00:22:50.691Z,44.50
2018-05-19T00:25:21.266Z,43.42
2018-05-19T00:27:51.098Z,46.95
2018-05-19T00:30:20.897Z,43.05
2018-05-19T00:32:50.403Z,46.80
2018-05-19T00:35:20.184Z,40.80
2018-05-19T00:37:50.763Z,46.65
2018-05-19T00:40:20.578Z,52.67
2018-05-19T00:42:50.330Z,48.00
2018-05-19T00:45:20.140Z,48.35
2018-05-19T00:47:50.638Z,45.45
2018-05-19T00:50:20.415Z,50.58
2018-05-19T00:52:50.198Z,54.80
2018-05-19T00:55:20.015Z,51.63
2018-05-19T00:57:50.595Z,49.30
2018-05-19T01:00:20.413Z,61.72
2018-05-19T01:02:49.951Z,58.67
2018-05-19T01:05:19.744Z,57.60
2018-05-19T01:07:49.523Z,66.43
2018-05-19T01:10:19.047Z,57.22
2018-05-19T01:12:48.836Z,57.83
2018-05-19T01:15:18.395Z,64.37
2018-05-19T01:17:48.155Z,57.55
2018-05-19T01:20:18.571Z,61.37
2018-05-19T01:22:48.349Z,78.12
2018-05-19T01:25:18.167Z,68.03
2018-05-19T01:27:47.937Z,67.32
2018-05-19T01:30:17.835Z,66.65
2018-05-19T01:32:47.757Z,64.47
2018-05-19T01:35:17.527Z,77.65
2018-05-19T01:37:48.106Z,64.05
2018-05-19T01:40:17.904Z,53.72
2018-05-19T01:42:47.689Z,62.17
2018-05-19T01:45:18.249Z,71.20
2018-05-19T01:47:48.066Z,63.87
2018-05-19T01:50:17.851Z,77.03
2018-05-19T01:52:48.395Z,80.35
2018-05-19T01:55:18.174Z,75.05
2018-05-19T01:57:48.746Z,79.28
2018-05-19T02:00:18.570Z,74.65
2018-05-19T02:02:48.402Z,79.07
2018-05-19T02:05:18.216Z,62.70
2018-05-19T02:07:48.013Z,70.07
2018-05-19T02:10:17.524Z,75.53
2018-05-19T02:12:47.376Z,78.00
2018-05-19T02:15:17.091Z,76.85
2018-05-19T02:17:46.864Z,66.37
2018-05-19T02:20:16.854Z,61.90
2018-05-19T02:22:46.349Z,70.22
2018-05-19T02:25:16.147Z,66.53
2018-05-19T02:27:46.678Z,72.50
2018-05-19T02:30:16.176Z,64.68
2018-05-19T02:32:46.709Z,64.97
2018-05-19T02:35:17.284Z,62.75
2018-05-19T02:37:47.162Z,56.78
2018-05-19T02:40:17.389Z,53.15
2018-05-19T02:42:47.154Z,51.00
2018-05-19T02:45:16.954Z,60.53
2018-05-19T02:47:46.751Z,53.53
2018-05-19T02:50:16.293Z,54.47
2018-05-19T02:52:47.372Z,52.05
2018-05-19T02:55:17.893Z,44.85
2018-05-19T02:57:48.446Z,47.13
2018-05-19T03:00:18.212Z,57.60
2018-05-19T03:02:48.028Z,49.75
2018-05-19T03:05:17.794Z,48.22
2018-05-19T03:07:47.590Z,50.28
2018-05-19T03:10:17.357Z,46.83
2018-05-19T03:12:47.649Z,45.38
2018-05-19T03:15:17.442Z,47.53
2018-05-19T03:17:47.290Z,55.47
2018-05-19T03:20:17.079Z,55.95
2018-05-19T03:22:46.871Z,48.97
2018-05-19T03:25:16.712Z,48.42
2018-05-19T03:27:46.827Z,52.13
2018-05-19T03:30:16.634Z,62.42
2018-05-19T03:32:46.439Z,63.10
2018-05-19T03:35:16.232Z,51.20
2018-05-19T03:37:46.760Z,50.28
2018-05-19T03:40:16.558Z,51.80
2018-05-19T03:42:47.116Z,58.15
2018-05-19T03:45:16.933Z,64.53
2018-05-19T03:47:46.997Z,50.65
2018-05-19T03:50:16.817Z,60.15
2018-05-19T03:52:48.130Z,59.00
2018-05-19T03:55:18.713Z,67.28
2018-05-19T03:57:59.696Z,69.35
2018-05-19T04:00:40.395Z,57.97
2018-05-19T04:03:09.895Z,52.50
2018-05-19T04:05:39.698Z,59.22
2018-05-19T04:08:09.496Z,49.08
2018-05-19T04:10:40.021Z,49.05
2018-05-19T04:13:10.640Z,54.25
2018-05-19T04:15:40.423Z,45.90
2018-05-19T04:18:10.200Z,47.60
2018-05-19T04:20:39.979Z,45.03
2018-05-19T04:23:10.571Z,48.10
2018-05-19T04:25:40.358Z,43.33
2018-05-19T04:28:10.140Z,46.28
2018-05-19T04:30:40.716Z,46.40
2018-05-19T04:33:10.512Z,49.25
2018-05-19T04:35:40.335Z,45.33
2018-05-19T04:38:10.137Z,35.47
2018-05-19T04:40:39.911Z,42.62
2018-05-19T04:43:09.682Z,42.70
2018-05-19T04:45:39.732Z,43.08
2018-05-19T04:48:09.507Z,40.33
2018-05-19T04:50:39.330Z,40.42
2018-05-19T04:53:09.128Z,39.25
2018-05-19T04:55:38.920Z,35.65
2018-05-19T04:58:08.721Z,41.30
2018-05-19T05:00:39.267Z,48.00
2018-05-19T05:03:09.075Z,45.00
2018-05-19T05:05:38.917Z,139.43
2018-05-19T05:08:08.724Z,46.20
2018-05-19T05:10:38.519Z,40.10
2018-05-19T05:13:08.294Z,43.30
2018-05-19T05:15:39.236Z,40.72
2018-05-19T05:18:09.038Z,42.25
2018-05-19T05:23:36.655Z,38.85
2018-05-19T05:26:06.456Z,37.50
2018-05-19T05:28:37.011Z,48.35
2018-05-19T05:31:06.764Z,41.42
2018-05-19T05:33:36.562Z,34.95
2018-05-19T05:36:06.391Z,40.38
2018-05-19T05:38:36.216Z,35.70
2018-05-19T05:41:06.041Z,48.55
2018-05-19T05:43:36.614Z,41.83
2018-05-19T05:46:06.458Z,36.55
2018-05-19T05:48:36.240Z,42.17
2018-05-19T05:51:06.046Z,39.25
2018-05-19T05:53:35.854Z,43.33
2018-05-19T05:56:05.661Z,34.88
2018-05-19T05:58:35.441Z,43.28
2018-05-19T06:01:06.025Z,37.42
2018-05-19T06:03:35.814Z,35.83
2018-05-19T06:06:05.642Z,40.85
2018-05-19T06:08:35.447Z,35.90
2018-05-19T06:11:05.232Z,30.73
2018-05-19T06:13:35.799Z,34.45
2018-05-19T06:16:05.544Z,31.92
2018-05-19T06:18:35.393Z,36.08
2018-05-19T06:21:05.327Z,28.80
2018-05-19T06:23:35.110Z,30.15
2018-05-19T06:26:05.648Z,36.53
2018-05-19T06:28:36.233Z,34.65
2018-05-19T06:31:05.685Z,38.05
2018-05-19T06:33:36.274Z,28.20
2018-05-19T06:36:06.536Z,33.50
2018-05-19T06:38:36.173Z,39.23
2018-05-19T06:41:06.193Z,31.30
2018-05-19T06:43:35.729Z,26.70
2018-05-19T06:46:06.027Z,25.30
2018-05-19T06:48:35.557Z,27.23
2018-05-19T06:51:05.810Z,16.10
2018-05-19T06:53:35.332Z,27.57
2018-05-19T06:56:04.550Z,18.43
2018-05-19T06:58:34.041Z,12.77
2018-05-19T07:01:03.527Z,12.93
2018-05-19T07:03:33.000Z,10.73
2018-05-19T07:06:02.950Z,9.73
2018-05-19T07:08:32.568Z,12.07
2018-05-19T07:11:02.120Z,10.97
2018-05-19T07:13:31.666Z,22.60
2018-05-19T07:16:01.176Z,7.33
2018-05-19T07:18:30.726Z,15.03
2018-05-19T07:21:00.207Z,7.50
2018-05-19T07:23:29.394Z,8.97
2018-05-19T07:25:58.922Z,7.57
2018-05-19T07:28:28.514Z,10.40
2018-05-19T07:30:58.037Z,10.73
2018-05-19T07:33:27.801Z,11.80
2018-05-19T07:35:58.070Z,5.83
2018-05-19T07:38:27.591Z,10.07
2018-05-19T07:40:57.859Z,7.67
2018-05-19T07:43:27.387Z,5.00
2018-05-19T07:45:56.896Z,6.70
2018-05-19T07:48:26.037Z,7.67
2018-05-19T07:50:55.658Z,8.13
2018-05-19T07:53:26.030Z,5.97
2018-05-19T07:55:55.571Z,5.50
2018-05-19T07:58:25.109Z,6.60
2018-05-19T08:00:54.829Z,3.63
2018-05-19T08:03:25.055Z,5.10
2018-05-19T08:05:55.356Z,3.30
2018-05-19T08:08:25.616Z,22.53
2018-05-19T08:10:55.158Z,4.50
2018-05-19T08:13:24.676Z,7.63
2018-05-19T08:15:54.171Z,6.57
2018-05-19T08:18:23.684Z,4.53
2018-05-19T08:20:53.173Z,3.97
2018-05-19T08:23:22.679Z,5.90
2018-05-19T08:25:52.205Z,3.70
2018-05-19T08:28:21.715Z,2.57
2018-05-19T08:30:51.405Z,4.17
2018-05-19T08:33:20.928Z,7.77
2018-05-19T08:35:50.391Z,3.70
2018-05-19T08:38:19.934Z,11.47
2018-05-19T08:40:49.413Z,4.37
2018-05-19T08:43:18.898Z,2.40
2018-05-19T08:45:48.395Z,4.03
2018-05-19T08:48:17.916Z,9.80
2018-05-19T08:50:47.415Z,4.93
2018-05-19T08:53:16.888Z,4.50
2018-05-19T08:55:47.167Z,4.97
2018-05-19T08:58:16.746Z,7.40
2018-05-19T09:00:46.364Z,3.07
2018-05-19T09:03:15.876Z,8.60
2018-05-19T09:05:45.417Z,3.40
2018-05-19T09:08:14.899Z,3.17
2018-05-19T09:10:44.368Z,5.90
2018-05-19T09:13:14.637Z,6.53
2018-05-19T09:15:44.241Z,5.40
2018-05-19T09:18:13.728Z,3.33
2018-05-19T09:20:43.194Z,4.10
2018-05-19T09:23:13.536Z,3.87
2018-05-19T09:25:43.184Z,3.50
2018-05-19T09:28:12.351Z,3.63
2018-05-19T09:30:41.860Z,3.20
2018-05-19T09:33:11.348Z,2.50
2018-05-19T09:35:41.724Z,2.40
2018-05-19T09:38:11.355Z,2.60
2018-05-19T09:40:40.573Z,3.33
2018-05-19T09:43:10.870Z,3.83
2018-05-19T09:45:40.337Z,4.90
2018-05-19T09:48:09.836Z,3.50
2018-05-19T09:50:39.330Z,3.10
2018-05-19T09:53:09.707Z,2.17
2018-05-19T09:55:39.283Z,7.40
2018-05-19T09:58:08.433Z,3.20
2018-05-19T10:00:37.998Z,2.40
2018-05-19T10:03:07.505Z,3.73
2018-05-19T10:05:37.059Z,1.80
2018-05-19T10:08:07.402Z,2.33
2018-05-19T10:10:36.952Z,2.00
2018-05-19T10:13:06.465Z,1.53
2018-05-19T10:15:35.949Z,3.63
2018-05-19T10:18:05.104Z,5.47
2018-05-19T10:20:35.406Z,3.23
2018-05-19T10:23:04.581Z,3.43
2018-05-19T10:25:34.270Z,4.50
2018-05-19T10:28:03.750Z,5.27
2018-05-19T10:30:34.068Z,4.10
2018-05-19T10:33:04.347Z,3.27
2018-05-19T10:35:33.912Z,3.40
2018-05-19T10:38:03.589Z,3.60
2018-05-19T10:40:33.071Z,3.07
2018-05-19T10:43:02.576Z,3.70
2018-05-19T10:45:32.078Z,4.90
2018-05-19T10:48:01.616Z,5.60
2018-05-19T10:50:32.638Z,3.57
2018-05-19T10:53:02.153Z,4.40
2018-05-19T10:55:31.638Z,4.23
2018-05-19T10:58:01.164Z,3.60
2018-05-19T11:00:30.649Z,4.87
2018-05-19T11:03:00.144Z,5.50
2018-05-19T11:05:29.660Z,5.57
2018-05-19T11:07:59.140Z,2.50
2018-05-19T11:10:28.618Z,4.60
2018-05-19T11:12:58.852Z,4.83
2018-05-19T11:15:28.342Z,4.43
2018-05-19T11:17:58.616Z,2.50
2018-05-19T11:20:28.099Z,3.07
2018-05-19T11:22:57.570Z,2.87
2018-05-19T11:25:27.901Z,3.90
2018-05-19T11:27:58.341Z,2.23
2018-05-19T11:30:27.843Z,21.07
2018-05-19T11:32:57.332Z,7.57
2018-05-19T11:35:26.864Z,3.73
2018-05-19T11:37:57.127Z,3.23
2018-05-19T11:40:26.662Z,2.67
2018-05-19T11:42:56.155Z,8.93
2018-05-19T11:45:25.651Z,2.93
2018-05-19T11:47:55.170Z,1.43
2018-05-19T11:50:24.730Z,1.90
2018-05-19T11:52:54.333Z,4.40
2018-05-19T11:55:24.016Z,3.03
2018-05-19T11:57:54.335Z,3.70
2018-05-19T12:00:23.803Z,8.00
2018-05-19T12:02:53.339Z,2.43
2018-05-19T12:05:22.885Z,11.77
2018-05-19T12:07:52.110Z,1.70
2018-05-19T12:10:21.603Z,2.73
2018-05-19T12:12:51.117Z,4.27
2018-05-19T12:15:20.603Z,3.67
2018-05-19T12:17:50.123Z,3.17
2018-05-19T12:20:19.742Z,4.40
2018-05-19T12:22:49.344Z,2.40
2018-05-19T12:25:19.796Z,2.77
2018-05-19T12:27:49.313Z,3.23
2018-05-19T12:30:18.894Z,2.87
2018-05-19T12:32:48.393Z,2.47
2018-05-19T12:35:17.921Z,3.20
2018-05-19T12:37:47.427Z,7.90
2018-05-19T12:40:16.976Z,2.80
2018-05-19T12:42:47.250Z,5.47
2018-05-19T12:45:16.769Z,3.90
2018-05-19T12:47:46.255Z,5.80
2018-05-19T12:50:15.763Z,2.90
2018-05-19T12:52:45.257Z,1.53
2018-05-19T12:55:14.453Z,23.67
2018-05-19T12:57:43.955Z,11.37
2018-05-19T13:00:13.152Z,3.90
2018-05-19T13:02:42.914Z,4.60
2018-05-19T13:05:12.417Z,2.90
2018-05-19T13:07:42.725Z,4.93
2018-05-19T13:10:13.738Z,2.40
2018-05-19T13:12:43.257Z,2.87
2018-05-19T13:15:12.786Z,4.13
2018-05-19T13:17:42.290Z,2.40
2018-05-19T13:20:11.816Z,5.27
2018-05-19T13:22:42.044Z,4.00
2018-05-19T13:25:12.336Z,3.93
2018-05-19T13:27:41.907Z,6.50
2018-05-19T13:30:11.557Z,8.83
2018-05-19T13:32:41.069Z,2.93
2018-05-19T13:35:10.579Z,6.03
2018-05-19T13:37:40.076Z,10.93
2018-05-19T13:40:09.219Z,9.47
2018-05-19T13:42:38.732Z,10.13
2018-05-19T13:45:08.270Z,4.43
2018-05-19T13:47:37.771Z,18.80
2018-05-19T13:50:07.278Z,4.73
2018-05-19T13:52:36.785Z,8.40
2018-05-19T13:55:06.271Z,4.30
2018-05-19T13:57:35.834Z,4.33
2018-05-19T14:00:05.443Z,16.87
2018-05-19T14:02:35.766Z,6.57
2018-05-19T14:05:04.675Z,5.10
2018-05-19T14:07:35.151Z,5.40
2018-05-19T14:10:04.019Z,11.20
2018-05-19T14:12:33.497Z,23.00
2018-05-19T14:15:03.012Z,14.50
2018-05-19T14:17:32.536Z,11.73
2018-05-19T14:20:03.112Z,7.43
2018-05-19T14:22:33.384Z,5.57
2018-05-19T14:25:02.877Z,5.27
2018-05-19T14:27:32.373Z,5.40
2018-05-19T14:30:01.891Z,4.33
2018-05-19T14:32:31.156Z,4.67
2018-05-19T14:35:00.649Z,5.93
2018-05-19T14:37:30.134Z,3.20
2018-05-19T14:39:59.650Z,3.97
2018-05-19T14:42:29.164Z,4.30
2018-05-19T14:44:58.349Z,4.30
2018-05-19T14:47:27.816Z,3.83
2018-05-19T14:49:57.325Z,3.20
2018-05-19T14:52:26.955Z,6.03
2018-05-19T14:54:56.458Z,3.27
2018-05-19T14:57:25.985Z,5.17
2018-05-19T14:59:56.312Z,18.10
2018-05-19T15:02:26.613Z,5.40
2018-05-19T15:04:56.121Z,3.10
2018-05-19T15:07:25.650Z,3.60
2018-05-19T15:09:55.156Z,8.33
2018-05-19T15:12:24.664Z,6.77
2018-05-19T15:14:54.140Z,3.90
2018-05-19T15:17:23.649Z,5.40
2018-05-19T15:19:53.200Z,5.03
2018-05-19T15:22:23.471Z,4.77
2018-05-19T15:24:54.364Z,5.13
2018-05-19T15:27:24.640Z,5.77
2018-05-19T15:29:54.144Z,4.30
2018-05-19T15:32:23.623Z,5.57
2018-05-19T15:34:53.148Z,5.57
2018-05-19T15:37:22.627Z,4.50
2018-05-19T15:39:52.094Z,3.73
2018-05-19T15:42:21.595Z,2.87
2018-05-19T15:44:51.065Z,8.23
2018-05-19T15:47:20.594Z,18.77
2018-05-19T15:49:50.131Z,20.70
2018-05-19T15:52:20.420Z,6.67
2018-05-19T15:54:49.915Z,5.07
2018-05-19T15:57:19.382Z,10.23
2018-05-19T15:59:48.884Z,5.50
2018-05-19T16:02:19.111Z,5.17
2018-05-19T16:04:48.632Z,3.13
2018-05-19T16:07:18.092Z,8.87
2018-05-19T16:09:47.954Z,6.63
2018-05-19T16:12:17.423Z,10.00
2018-05-19T16:14:47.682Z,5.87
2018-05-19T16:17:17.150Z,4.30
2018-05-19T16:19:47.447Z,4.80
2018-05-19T16:22:16.919Z,6.30
2018-05-19T16:24:46.423Z,7.63
2018-05-19T16:27:15.907Z,5.07
2018-05-19T16:29:45.579Z,7.50
2018-05-19T16:32:15.098Z,13.17
2018-05-19T16:34:44.756Z,3.97
2018-05-19T16:37:14.263Z,4.40
2018-05-19T16:39:43.798Z,6.70
2018-05-19T16:42:13.305Z,12.63
2018-05-19T16:44:42.765Z,9.67
2018-05-19T16:47:12.284Z,4.50
2018-05-19T16:49:41.834Z,6.20
2018-05-19T16:52:11.325Z,7.00
2018-05-19T16:54:40.825Z,7.90
2018-05-19T16:57:10.352Z,9.50
2018-05-19T16:59:39.864Z,5.37
2018-05-19T17:02:09.335Z,7.47
2018-05-19T17:04:38.495Z,6.87
2018-05-19T17:07:07.956Z,4.60
2018-05-19T17:09:37.505Z,6.40
2018-05-19T17:12:07.754Z,5.03
2018-05-19T17:14:39.067Z,4.70
2018-05-19T17:17:08.542Z,4.13
2018-05-19T17:19:38.026Z,9.97
2018-05-19T17:22:07.499Z,8.10
2018-05-19T17:24:37.956Z,5.90
2018-05-19T17:27:07.457Z,10.37
2018-05-19T17:29:36.972Z,8.73
2018-05-19T17:32:06.462Z,7.90
2018-05-19T17:34:36.743Z,3.77
2018-05-19T17:37:06.224Z,4.10
2018-05-19T17:39:35.761Z,5.93
2018-05-19T17:42:05.273Z,10.37
2018-05-19T17:44:34.787Z,3.40
2018-05-19T17:47:05.127Z,5.03
2018-05-19T17:49:34.425Z,12.13
2018-05-19T17:52:04.731Z,9.83
2018-05-19T17:54:35.709Z,8.17
2018-05-19T17:57:05.309Z,5.40
2018-05-19T17:59:34.986Z,4.53
2018-05-19T18:02:05.294Z,5.13
2018-05-19T18:04:34.800Z,7.13
2018-05-19T18:07:04.342Z,8.83
2018-05-19T18:09:34.598Z,8.80
2018-05-19T18:12:04.117Z,3.67
2018-05-19T18:14:33.592Z,3.57
2018-05-19T18:17:03.072Z,8.03
2018-05-19T18:19:33.366Z,4.03
2018-05-19T18:22:02.876Z,4.43
2018-05-19T18:24:32.377Z,4.63
2018-05-19T18:27:01.896Z,7.67
2018-05-19T18:29:31.485Z,4.50
2018-05-19T18:32:01.075Z,2.80
2018-05-19T18:34:30.565Z,5.47
2018-05-19T18:37:00.073Z,5.00
2018-05-19T18:39:29.619Z,5.27
2018-05-19T18:41:59.145Z,8.43
2018-05-19T18:44:28.652Z,11.90
2018-05-19T18:46:58.942Z,4.43
2018-05-19T18:49:28.454Z,4.73
2018-05-19T18:51:58.406Z,21.03
2018-05-19T18:54:28.155Z,11.23
2018-05-19T18:56:57.642Z,8.50
2018-05-19T18:59:27.133Z,12.43
2018-05-19T19:01:57.439Z,13.23
2018-05-19T19:04:26.978Z,13.50
2018-05-19T19:06:56.522Z,4.30
2018-05-19T19:09:26.053Z,6.90
2018-05-19T19:11:57.078Z,6.97
2018-05-19T19:14:26.608Z,6.63
2018-05-19T19:16:56.122Z,7.03
2018-05-19T19:19:26.413Z,5.23
2018-05-19T19:21:56.111Z,6.70
2018-05-19T19:24:25.652Z,6.03
2018-05-19T19:26:55.136Z,7.60
2018-05-19T19:29:24.678Z,6.07
2018-05-19T19:31:54.955Z,5.70
2018-05-19T19:34:24.463Z,10.20
2018-05-19T19:36:54.638Z,8.83
2018-05-19T19:39:24.915Z,7.20
2018-05-19T19:41:54.650Z,7.20
2018-05-19T19:44:24.178Z,6.43
2018-05-19T19:46:54.125Z,9.37
2018-05-19T19:49:23.622Z,4.20
2018-05-19T19:51:53.133Z,4.23
2018-05-19T19:54:22.675Z,6.50
2018-05-19T19:56:52.160Z,3.13
2018-05-19T19:59:21.751Z,6.40
2018-05-19T20:01:51.390Z,4.20
2018-05-19T20:04:20.913Z,12.90
2018-05-19T20:06:51.211Z,5.20
2018-05-19T20:09:20.707Z,6.20
2018-05-19T20:11:51.034Z,5.97
2018-05-19T20:14:20.509Z,9.37
2018-05-19T20:16:50.037Z,6.87
2018-05-19T20:19:19.583Z,6.57
2018-05-19T20:21:49.100Z,4.53
2018-05-19T20:24:18.779Z,8.13
2018-05-19T20:26:48.395Z,6.83
2018-05-19T20:29:19.405Z,3.90
2018-05-19T20:31:48.953Z,7.73
2018-05-19T20:34:18.474Z,3.40
2018-05-19T20:36:48.710Z,4.70
2018-05-19T20:39:18.248Z,10.97
2018-05-19T20:41:48.547Z,7.25
2018-05-19T20:44:18.335Z,6.10
2018-05-19T20:46:47.518Z,4.87
2018-05-19T20:49:17.335Z,3.70
2018-05-19T20:51:46.807Z,6.27
2018-05-19T20:54:16.350Z,4.17
2018-05-19T20:56:46.132Z,9.25
2018-05-19T20:59:15.886Z,6.55
2018-05-19T21:01:45.648Z,5.75
2018-05-19T21:04:15.161Z,5.10
2018-05-19T21:06:44.941Z,4.65
2018-05-19T21:09:14.691Z,4.15
2018-05-19T21:11:44.266Z,6.07
2018-05-19T21:14:14.007Z,4.70
2018-05-19T21:16:43.830Z,5.43
2018-05-19T21:19:13.604Z,6.20
2018-05-19T21:21:44.131Z,6.05
2018-05-19T21:24:14.701Z,3.60
2018-05-19T21:26:44.478Z,4.82
2018-05-19T21:29:15.003Z,5.95
2018-05-19T21:31:45.567Z,4.70
2018-05-19T21:34:15.396Z,5.65
2018-05-19T21:36:45.156Z,6.82
2018-05-19T21:39:14.948Z,5.60
2018-05-19T21:41:44.686Z,4.05
2018-05-19T21:44:15.262Z,5.03
2018-05-19T21:46:45.090Z,5.22
2018-05-19T21:49:14.864Z,11.23
2018-05-19T21:51:44.623Z,5.60
2018-05-19T21:54:14.096Z,5.00
2018-05-19T21:56:43.871Z,5.15
2018-05-19T21:59:14.406Z,3.37
2018-05-19T22:01:44.945Z,3.50
2018-05-19T22:04:14.757Z,6.72
2018-05-19T22:06:44.543Z,4.35
2018-05-19T22:09:14.332Z,3.35
2018-05-19T22:11:44.094Z,4.47
2018-05-19T22:14:13.877Z,6.75
2018-05-19T22:16:43.695Z,5.75
2018-05-19T22:19:13.436Z,7.78
2018-05-19T22:21:43.238Z,4.80
2018-05-19T22:24:12.728Z,4.30
2018-05-19T22:26:43.039Z,3.05
2018-05-19T22:29:12.800Z,2.80
2018-05-19T22:31:42.565Z,3.12
2018-05-19T22:34:12.346Z,4.55
2018-05-19T22:36:42.143Z,3.22
2018-05-19T22:39:11.938Z,5.12
2018-05-19T22:41:41.350Z,2.87
2018-05-19T22:44:11.142Z,6.95
2018-05-19T22:46:41.682Z,5.20
2018-05-19T22:49:11.476Z,5.03
2018-05-19T22:51:41.975Z,3.08
2018-05-19T22:54:12.301Z,10.43
2018-05-19T22:56:42.095Z,4.53
2018-05-19T22:59:11.919Z,4.55
2018-05-19T23:01:41.650Z,5.15
2018-05-19T23:04:11.109Z,3.95
2018-05-19T23:06:40.893Z,5.95
2018-05-19T23:09:11.455Z,3.37
2018-05-19T23:11:41.214Z,3.75
2018-05-19T23:14:10.968Z,4.00
2018-05-19T23:16:40.739Z,4.07
2018-05-19T23:19:11.262Z,5.30
2018-05-19T23:21:41.066Z,3.10
2018-05-19T23:24:10.845Z,3.37
2018-05-19T23:26:40.674Z,2.60
2018-05-19T23:29:10.482Z,5.80
2018-05-19T23:31:40.273Z,4.90
2018-05-19T23:34:10.017Z,6.60
2018-05-19T23:36:39.866Z,1.87
2018-05-19T23:39:10.828Z,4.57
2018-05-19T23:41:40.629Z,5.72
2018-05-19T23:44:10.412Z,3.42
2018-05-19T23:46:41.723Z,4.72
2018-05-19T23:49:11.526Z,3.12
2018-05-19T23:51:41.266Z,6.30
2018-05-19T23:54:11.082Z,4.80
2018-05-19T23:56:40.917Z,3.65
2018-05-19T23:59:10.687Z,4.62
